Terminal Aerodrome Forecast
Issued by NWS

Home | Current Version | Previous Version | Text Only | Print | Product List | Glossary On
Versions: 1 2 3 4 5 6 7 8 9 10 11 12 13 14 15 16 17 18 19 20
000
FTUS43 KMQT 271600 AAB
TAFSAW
TAF AMD
KSAW 271600Z 2716/2812 00000KT P6SM OVC003
      TEMPO 2717/2718 SCT003 BKN025
     FM271800 18004KT P6SM BKN025
     FM280800 20005KT P6SM SCT025 BKN080
      AMD LTD TO CLD VIS AND WIND 2803/2811=

USA.gov is the U.S. government's official web portal to all federal, state and local government web resources and services.